sensor_id;sensor_type;location;lat;lon;timestamp;pressure;altitude;pressure_sealevel;temperature;humidity
70468;BME280;57934;51.532;7.684;2022-10-30T00:00:37;100492.22;;;17.51;60.07
70468;BME280;57934;51.532;7.684;2022-10-30T00:03:03;100496.03;;;17.55;59.47
70468;BME280;57934;51.532;7.684;2022-10-30T00:05:29;100493.47;;;17.60;59.48
70468;BME280;57934;51.532;7.684;2022-10-30T00:07:56;100491.41;;;17.62;59.88
70468;BME280;57934;51.532;7.684;2022-10-30T00:10:23;100484.31;;;17.68;59.05
70468;BME280;57934;51.532;7.684;2022-10-30T00:12:49;100486.25;;;17.72;58.92
70468;BME280;57934;51.532;7.684;2022-10-30T00:15:15;100480.44;;;17.75;58.92
70468;BME280;57934;51.532;7.684;2022-10-30T00:17:41;100485.09;;;17.68;59.56
70468;BME280;57934;51.532;7.684;2022-10-30T00:20:08;100479.56;;;17.70;59.33
70468;BME280;57934;51.532;7.684;2022-10-30T00:22:35;100477.78;;;17.75;59.12
70468;BME280;57934;51.532;7.684;2022-10-30T00:25:02;100483.75;;;17.77;59.08
70468;BME280;57934;51.532;7.684;2022-10-30T00:27:28;100490.81;;;17.83;58.69
70468;BME280;57934;51.532;7.684;2022-10-30T00:29:55;100487.88;;;17.85;59.20
70468;BME280;57934;51.532;7.684;2022-10-30T00:32:21;100485.22;;;17.85;58.98
70468;BME280;57934;51.532;7.684;2022-10-30T00:34:48;100495.66;;;17.86;58.66
70468;BME280;57934;51.532;7.684;2022-10-30T00:37:14;100487.16;;;17.89;58.56
70468;BME280;57934;51.532;7.684;2022-10-30T00:39:40;100485.34;;;17.90;58.72
70468;BME280;57934;51.532;7.684;2022-10-30T00:42:12;100491.00;;;17.94;58.80
70468;BME280;57934;51.532;7.684;2022-10-30T00:44:47;100493.69;;;17.94;58.77
70468;BME280;57934;51.532;7.684;2022-10-30T00:47:24;100500.84;;;17.93;58.79
70468;BME280;57934;51.532;7.684;2022-10-30T00:50:07;100494.16;;;17.91;58.67
70468;BME280;57934;51.532;7.684;2022-10-30T00:52:40;100506.31;;;17.86;59.22
70468;BME280;57934;51.532;7.684;2022-10-30T00:55:19;100501.47;;;17.83;58.88
70468;BME280;57934;51.532;7.684;2022-10-30T00:57:46;100499.84;;;17.82;59.00
70468;BME280;57934;51.532;7.684;2022-10-30T01:00:13;100490.47;;;17.80;59.11
70468;BME280;57934;51.532;7.684;2022-10-30T01:02:41;100497.06;;;17.77;59.42
70468;BME280;57934;51.532;7.684;2022-10-30T01:05:11;100502.25;;;17.72;59.71
70468;BME280;57934;51.532;7.684;2022-10-30T01:07:40;100497.41;;;17.69;59.83
70468;BME280;57934;51.532;7.684;2022-10-30T01:10:07;100497.09;;;17.65;59.87
70468;BME280;57934;51.532;7.684;2022-10-30T01:12:33;100493.47;;;17.60;60.24
70468;BME280;57934;51.532;7.684;2022-10-30T01:15:00;100492.34;;;17.56;60.26
70468;BME280;57934;51.532;7.684;2022-10-30T01:28:34;100487.03;;;17.21;61.66
70468;BME280;57934;51.532;7.684;2022-10-30T01:33:53;100488.19;;;17.13;61.82
70468;BME280;57934;51.532;7.684;2022-10-30T01:39:00;100481.81;;;17.14;61.37
70468;BME280;57934;51.532;7.684;2022-10-30T01:41:27;100498.34;;;17.16;61.29
70468;BME280;57934;51.532;7.684;2022-10-30T01:43:57;100490.97;;;17.18;61.29
70468;BME280;57934;51.532;7.684;2022-10-30T01:46:43;100499.75;;;17.18;61.35
70468;BME280;57934;51.532;7.684;2022-10-30T01:51:53;100491.41;;;17.15;61.46
70468;BME280;57934;51.532;7.684;2022-10-30T01:54:43;100513.09;;;17.18;61.35
70468;BME280;57934;51.532;7.684;2022-10-30T02:00:07;100496.75;;;17.15;61.46
70468;BME280;57934;51.532;7.684;2022-10-30T02:02:41;100494.69;;;17.17;61.62
70468;BME280;57934;51.532;7.684;2022-10-30T02:05:20;100496.88;;;17.20;61.79
70468;BME280;57934;51.532;7.684;2022-10-30T02:07:53;100495.81;;;17.21;62.08
70468;BME280;57934;51.532;7.684;2022-10-30T02:10:19;100494.22;;;17.20;61.72
70468;BME280;57934;51.532;7.684;2022-10-30T02:12:46;100487.84;;;17.21;62.10
70468;BME280;57934;51.532;7.684;2022-10-30T02:15:12;100491.31;;;17.22;61.83
70468;BME280;57934;51.532;7.684;2022-10-30T02:17:38;100494.31;;;17.25;62.27
70468;BME280;57934;51.532;7.684;2022-10-30T02:20:07;100494.56;;;17.24;62.14
70468;BME280;57934;51.532;7.684;2022-10-30T02:22:33;100492.56;;;17.19;62.59
70468;BME280;57934;51.532;7.684;2022-10-30T02:24:59;100500.47;;;17.14;62.68
70468;BME280;57934;51.532;7.684;2022-10-30T02:27:25;100498.50;;;17.09;62.54
70468;BME280;57934;51.532;7.684;2022-10-30T02:29:51;100497.66;;;17.09;62.77
70468;BME280;57934;51.532;7.684;2022-10-30T02:32:17;100503.34;;;17.01;63.12
70468;BME280;57934;51.532;7.684;2022-10-30T02:34:43;100501.59;;;16.94;63.56
70468;BME280;57934;51.532;7.684;2022-10-30T02:37:09;100504.50;;;16.93;63.39
70468;BME280;57934;51.532;7.684;2022-10-30T02:39:37;100507.84;;;16.88;63.91
70468;BME280;57934;51.532;7.684;2022-10-30T02:42:03;100504.69;;;16.80;64.25
70468;BME280;57934;51.532;7.684;2022-10-30T02:44:30;100509.66;;;16.76;64.47
70468;BME280;57934;51.532;7.684;2022-10-30T02:46:56;100504.75;;;16.73;64.77
70468;BME280;57934;51.532;7.684;2022-10-30T02:49:23;100506.88;;;16.71;64.65
70468;BME280;57934;51.532;7.684;2022-10-30T02:51:50;100513.09;;;16.65;64.90
70468;BME280;57934;51.532;7.684;2022-10-30T02:54:16;100509.25;;;16.61;64.73
70468;BME280;57934;51.532;7.684;2022-10-30T02:56:42;100509.13;;;16.56;64.85
70468;BME280;57934;51.532;7.684;2022-10-30T02:59:09;100500.78;;;16.52;65.12
70468;BME280;57934;51.532;7.684;2022-10-30T03:01:36;100503.53;;;16.45;65.53
70468;BME280;57934;51.532;7.684;2022-10-30T03:04:03;100501.56;;;16.41;65.67
70468;BME280;57934;51.532;7.684;2022-10-30T03:06:29;100502.25;;;16.36;66.07
70468;BME280;57934;51.532;7.684;2022-10-30T03:08:57;100491.44;;;16.31;66.22
70468;BME280;57934;51.532;7.684;2022-10-30T03:11:23;100494.69;;;16.33;66.21
70468;BME280;57934;51.532;7.684;2022-10-30T03:13:49;100505.88;;;16.23;66.33
70468;BME280;57934;51.532;7.684;2022-10-30T03:16:17;100500.63;;;16.17;67.10
70468;BME280;57934;51.532;7.684;2022-10-30T03:18:44;100498.28;;;16.09;67.03
70468;BME280;57934;51.532;7.684;2022-10-30T03:21:14;100508.78;;;16.04;67.36
70468;BME280;57934;51.532;7.684;2022-10-30T03:23:41;100507.84;;;15.98;67.58
70468;BME280;57934;51.532;7.684;2022-10-30T03:26:07;100499.72;;;15.93;67.90
70468;BME280;57934;51.532;7.684;2022-10-30T03:28:45;100500.38;;;15.88;68.03
70468;BME280;57934;51.532;7.684;2022-10-30T03:31:13;100500.81;;;15.85;68.23
70468;BME280;57934;51.532;7.684;2022-10-30T03:33:40;100504.16;;;15.81;68.50
70468;BME280;57934;51.532;7.684;2022-10-30T03:36:08;100500.75;;;15.73;68.53
70468;BME280;57934;51.532;7.684;2022-10-30T03:38:35;100497.75;;;15.70;68.74
70468;BME280;57934;51.532;7.684;2022-10-30T03:41:02;100492.41;;;15.70;68.74
70468;BME280;57934;51.532;7.684;2022-10-30T03:43:29;100497.75;;;15.70;68.98
70468;BME280;57934;51.532;7.684;2022-10-30T03:45:55;100493.91;;;15.66;68.96
70468;BME280;57934;51.532;7.684;2022-10-30T03:48:24;100513.34;;;15.60;69.10
70468;BME280;57934;51.532;7.684;2022-10-30T03:50:52;100498.44;;;15.59;69.08
70468;BME280;57934;51.532;7.684;2022-10-30T03:53:19;100501.47;;;15.62;68.98
70468;BME280;57934;51.532;7.684;2022-10-30T03:55:46;100507.59;;;15.63;68.96
70468;BME280;57934;51.532;7.684;2022-10-30T03:58:12;100507.44;;;15.58;69.04
70468;BME280;57934;51.532;7.684;2022-10-30T04:00:38;100507.66;;;15.56;69.34
70468;BME280;57934;51.532;7.684;2022-10-30T04:03:08;100521.41;;;15.53;69.54
70468;BME280;57934;51.532;7.684;2022-10-30T04:05:36;100529.00;;;15.49;69.51
70468;BME280;57934;51.532;7.684;2022-10-30T04:08:06;100518.38;;;15.49;69.60
70468;BME280;57934;51.532;7.684;2022-10-30T04:10:35;100515.34;;;15.46;69.52
70468;BME280;57934;51.532;7.684;2022-10-30T04:13:06;100521.47;;;15.46;69.85
70468;BME280;57934;51.532;7.684;2022-10-30T04:15:33;100527.00;;;15.45;69.67
70468;BME280;57934;51.532;7.684;2022-10-30T04:17:59;100521.47;;;15.46;69.67
70468;BME280;57934;51.532;7.684;2022-10-30T04:20:26;100521.69;;;15.45;69.72
70468;BME280;57934;51.532;7.684;2022-10-30T04:25:23;100522.75;;;15.37;69.91
70468;BME280;57934;51.532;7.684;2022-10-30T04:27:50;100516.25;;;15.33;70.42
70468;BME280;57934;51.532;7.684;2022-10-30T04:30:18;100515.88;;;15.30;70.69
70468;BME280;57934;51.532;7.684;2022-10-30T04:32:47;100518.78;;;15.28;70.77
70468;BME280;57934;51.532;7.684;2022-10-30T04:35:15;100519.22;;;15.25;70.77
70468;BME280;57934;51.532;7.684;2022-10-30T04:37:42;100516.97;;;15.22;71.07
70468;BME280;57934;51.532;7.684;2022-10-30T04:40:08;100517.41;;;15.19;71.08
70468;BME280;57934;51.532;7.684;2022-10-30T04:42:48;100518.44;;;15.18;70.99
70468;BME280;57934;51.532;7.684;2022-10-30T04:45:15;100515.19;;;15.16;71.19
70468;BME280;57934;51.532;7.684;2022-10-30T04:47:42;100527.09;;;15.13;71.20
70468;BME280;57934;51.532;7.684;2022-10-30T04:50:09;100528.09;;;15.12;71.47
70468;BME280;57934;51.532;7.684;2022-10-30T04:52:35;100524.03;;;15.10;71.35
70468;BME280;57934;51.532;7.684;2022-10-30T04:55:02;100529.34;;;15.10;71.60
70468;BME280;57934;51.532;7.684;2022-10-30T04:57:28;100525.44;;;15.12;71.69
70468;BME280;57934;51.532;7.684;2022-10-30T04:59:59;100530.97;;;15.11;71.47
70468;BME280;57934;51.532;7.684;2022-10-30T05:02:25;100526.69;;;15.10;71.45
70468;BME280;57934;51.532;7.684;2022-10-30T05:04:52;100530.59;;;15.07;71.75
70468;BME280;57934;51.532;7.684;2022-10-30T05:07:18;100530.59;;;15.07;71.88
70468;BME280;57934;51.532;7.684;2022-10-30T05:09:44;100529.41;;;15.03;71.95
70468;BME280;57934;51.532;7.684;2022-10-30T05:12:10;100520.03;;;15.00;72.29
70468;BME280;57934;51.532;7.684;2022-10-30T05:14:47;100518.22;;;14.94;72.68
70468;BME280;57934;51.532;7.684;2022-10-30T05:17:13;100522.53;;;14.95;72.42
70468;BME280;57934;51.532;7.684;2022-10-30T05:19:39;100525.00;;;14.90;72.68
70468;BME280;57934;51.532;7.684;2022-10-30T05:22:06;100524.00;;;14.85;72.92
70468;BME280;57934;51.532;7.684;2022-10-30T05:24:32;100523.81;;;14.86;73.21
70468;BME280;57934;51.532;7.684;2022-10-30T05:26:58;100521.16;;;14.86;73.01
70468;BME280;57934;51.532;7.684;2022-10-30T05:29:25;100528.75;;;14.83;73.32
70468;BME280;57934;51.532;7.684;2022-10-30T05:31:51;100529.97;;;14.80;73.36
70468;BME280;57934;51.532;7.684;2022-10-30T05:34:17;100518.97;;;14.76;73.00
70468;BME280;57934;51.532;7.684;2022-10-30T05:36:45;100514.47;;;14.77;73.50
70468;BME280;57934;51.532;7.684;2022-10-30T05:39:13;100510.25;;;14.69;73.65
70468;BME280;57934;51.532;7.684;2022-10-30T05:41:42;100519.00;;;14.70;73.80
70468;BME280;57934;51.532;7.684;2022-10-30T05:44:08;100507.44;;;14.64;74.07
70468;BME280;57934;51.532;7.684;2022-10-30T05:46:38;100510.50;;;14.61;74.08
70468;BME280;57934;51.532;7.684;2022-10-30T05:49:23;100513.78;;;14.56;74.34
70468;BME280;57934;51.532;7.684;2022-10-30T05:51:49;100520.78;;;14.51;74.62
70468;BME280;57934;51.532;7.684;2022-10-30T05:54:15;100519.97;;;14.50;74.76
70468;BME280;57934;51.532;7.684;2022-10-30T05:56:56;100523.81;;;14.48;74.83
70468;BME280;57934;51.532;7.684;2022-10-30T05:59:23;100517.69;;;14.47;74.91
70468;BME280;57934;51.532;7.684;2022-10-30T06:01:49;100515.84;;;14.48;75.04
70468;BME280;57934;51.532;7.684;2022-10-30T06:04:16;100510.56;;;14.48;74.89
70468;BME280;57934;51.532;7.684;2022-10-30T06:06:42;100511.56;;;14.53;74.71
70468;BME280;57934;51.532;7.684;2022-10-30T06:09:08;100510.16;;;14.51;74.88
70468;BME280;57934;51.532;7.684;2022-10-30T06:12:04;100507.50;;;14.44;75.24
70468;BME280;57934;51.532;7.684;2022-10-30T06:14:43;100504.47;;;14.41;75.56
70468;BME280;57934;51.532;7.684;2022-10-30T06:17:09;100512.81;;;14.44;75.18
70468;BME280;57934;51.532;7.684;2022-10-30T06:19:49;100517.47;;;14.49;75.16
70468;BME280;57934;51.532;7.684;2022-10-30T06:22:33;100505.88;;;14.50;74.65
70468;BME280;57934;51.532;7.684;2022-10-30T06:25:09;100506.44;;;14.59;74.36
70468;BME280;57934;51.532;7.684;2022-10-30T06:27:50;100511.53;;;14.60;74.08
70468;BME280;57934;51.532;7.684;2022-10-30T06:30:16;100509.09;;;14.59;74.36
70468;BME280;57934;51.532;7.684;2022-10-30T06:32:42;100504.44;;;14.54;74.61
70468;BME280;57934;51.532;7.684;2022-10-30T06:35:09;100506.69;;;14.50;74.82
70468;BME280;57934;51.532;7.684;2022-10-30T06:37:35;100506.47;;;14.45;74.96
70468;BME280;57934;51.532;7.684;2022-10-30T06:40:09;100504.47;;;14.41;75.19
70468;BME280;57934;51.532;7.684;2022-10-30T06:43:08;100509.53;;;14.42;75.38
70468;BME280;57934;51.532;7.684;2022-10-30T06:45:37;100507.16;;;14.34;75.99
70468;BME280;57934;51.532;7.684;2022-10-30T06:48:03;100511.03;;;14.31;75.64
70468;BME280;57934;51.532;7.684;2022-10-30T06:50:34;100505.53;;;14.33;75.69
70468;BME280;57934;51.532;7.684;2022-10-30T06:53:00;100501.44;;;14.37;75.41
70468;BME280;57934;51.532;7.684;2022-10-30T06:55:26;100504.31;;;14.36;75.38
70468;BME280;57934;51.532;7.684;2022-10-30T06:58:19;100506.72;;;14.37;75.34
70468;BME280;57934;51.532;7.684;2022-10-30T07:00:54;100515.50;;;14.38;75.57
70468;BME280;57934;51.532;7.684;2022-10-30T07:03:39;100510.00;;;14.39;75.59
70468;BME280;57934;51.532;7.684;2022-10-30T07:06:05;100513.63;;;14.45;75.30
70468;BME280;57934;51.532;7.684;2022-10-30T07:08:32;100510.78;;;14.46;75.20
70468;BME280;57934;51.532;7.684;2022-10-30T07:10:58;100519.53;;;14.47;74.93
70468;BME280;57934;51.532;7.684;2022-10-30T07:13:43;100522.63;;;14.50;75.10
70468;BME280;57934;51.532;7.684;2022-10-30T07:16:24;100522.59;;;14.57;75.29
70468;BME280;57934;51.532;7.684;2022-10-30T07:18:51;100527.84;;;14.64;75.03
70468;BME280;57934;51.532;7.684;2022-10-30T07:21:17;100527.31;;;14.80;74.63
70468;BME280;57934;51.532;7.684;2022-10-30T07:23:43;100529.59;;;15.01;74.30
70468;BME280;57934;51.532;7.684;2022-10-30T07:26:26;100531.28;;;15.46;73.31
70468;BME280;57934;51.532;7.684;2022-10-30T07:28:54;100533.28;;;15.94;72.08
70468;BME280;57934;51.532;7.684;2022-10-30T07:31:32;100537.22;;;16.52;69.44
70468;BME280;57934;51.532;7.684;2022-10-30T07:34:07;100536.38;;;17.00;67.79
70468;BME280;57934;51.532;7.684;2022-10-30T07:36:47;100543.34;;;17.48;66.19
70468;BME280;57934;51.532;7.684;2022-10-30T07:39:45;100545.22;;;18.23;63.82
70468;BME280;57934;51.532;7.684;2022-10-30T07:42:24;100548.06;;;18.90;61.76
70468;BME280;57934;51.532;7.684;2022-10-30T07:45:09;100547.34;;;19.45;59.50
70468;BME280;57934;51.532;7.684;2022-10-30T07:47:58;100544.69;;;20.06;56.88
70468;BME280;57934;51.532;7.684;2022-10-30T07:50:44;100549.09;;;20.66;55.60
70468;BME280;57934;51.532;7.684;2022-10-30T07:53:10;100552.44;;;21.11;54.37
70468;BME280;57934;51.532;7.684;2022-10-30T07:55:36;100554.44;;;21.63;52.86
70468;BME280;57934;51.532;7.684;2022-10-30T07:58:21;100555.44;;;22.04;51.61
70468;BME280;57934;51.532;7.684;2022-10-30T08:00:47;100547.50;;;22.30;51.08
70468;BME280;57934;51.532;7.684;2022-10-30T08:03:24;100546.41;;;22.31;50.19
70468;BME280;57934;51.532;7.684;2022-10-30T08:05:53;100550.75;;;22.42;50.76
70468;BME280;57934;51.532;7.684;2022-10-30T08:08:25;100549.19;;;22.72;49.66
70468;BME280;57934;51.532;7.684;2022-10-30T08:11:03;100549.75;;;23.15;48.44
70468;BME280;57934;51.532;7.684;2022-10-30T08:13:29;100551.63;;;23.40;48.43
70468;BME280;57934;51.532;7.684;2022-10-30T08:15:55;100545.91;;;23.67;47.19
70468;BME280;57934;51.532;7.684;2022-10-30T08:18:22;100546.34;;;23.99;46.64
70468;BME280;57934;51.532;7.684;2022-10-30T08:20:49;100547.59;;;24.17;46.32
70468;BME280;57934;51.532;7.684;2022-10-30T08:23:15;100548.53;;;24.52;45.51
70468;BME280;57934;51.532;7.684;2022-10-30T08:25:44;100537.31;;;24.24;45.13
70468;BME280;57934;51.532;7.684;2022-10-30T08:28:11;100542.16;;;23.68;46.42
70468;BME280;57934;51.532;7.684;2022-10-30T08:30:39;100545.34;;;23.65;47.15
70468;BME280;57934;51.532;7.684;2022-10-30T08:33:11;100547.44;;;23.98;46.48
70468;BME280;57934;51.532;7.684;2022-10-30T08:35:57;100551.34;;;24.21;46.07
70468;BME280;57934;51.532;7.684;2022-10-30T08:38:25;100542.97;;;24.33;45.67
70468;BME280;57934;51.532;7.684;2022-10-30T08:41:16;100541.38;;;24.27;45.67
70468;BME280;57934;51.532;7.684;2022-10-30T08:43:47;100537.53;;;24.38;45.39
70468;BME280;57934;51.532;7.684;2022-10-30T08:46:13;100535.91;;;24.42;45.86
70468;BME280;57934;51.532;7.684;2022-10-30T08:48:40;100528.78;;;24.57;45.08
70468;BME280;57934;51.532;7.684;2022-10-30T08:51:06;100521.78;;;24.56;45.25
70468;BME280;57934;51.532;7.684;2022-10-30T08:53:36;100524.88;;;24.78;44.49
70468;BME280;57934;51.532;7.684;2022-10-30T08:56:07;100523.56;;;25.34;43.25
70468;BME280;57934;51.532;7.684;2022-10-30T08:59:03;100525.34;;;25.49;42.91
70468;BME280;57934;51.532;7.684;2022-10-30T09:01:29;100525.03;;;25.50;42.98
70468;BME280;57934;51.532;7.684;2022-10-30T09:04:29;100526.22;;;25.10;43.62
70468;BME280;57934;51.532;7.684;2022-10-30T09:07:30;100524.34;;;24.76;44.30
70468;BME280;57934;51.532;7.684;2022-10-30T09:10:15;100519.31;;;24.64;44.63
70468;BME280;57934;51.532;7.684;2022-10-30T09:12:42;100517.31;;;25.09;44.03
70468;BME280;57934;51.532;7.684;2022-10-30T09:15:08;100519.84;;;25.54;43.60
70468;BME280;57934;51.532;7.684;2022-10-30T09:17:45;100523.94;;;26.18;42.06
70468;BME280;57934;51.532;7.684;2022-10-30T09:20:11;100518.19;;;26.44;41.18
70468;BME280;57934;51.532;7.684;2022-10-30T09:22:41;100519.94;;;26.53;41.27
70468;BME280;57934;51.532;7.684;2022-10-30T09:25:08;100512.47;;;26.45;41.20
70468;BME280;57934;51.532;7.684;2022-10-30T09:27:50;100517.66;;;26.41;41.16
70468;BME280;57934;51.532;7.684;2022-10-30T09:30:17;100512.50;;;26.26;41.57
70468;BME280;57934;51.532;7.684;2022-10-30T09:32:56;100505.22;;;26.22;41.46
70468;BME280;57934;51.532;7.684;2022-10-30T09:35:32;100509.41;;;25.71;42.21
70468;BME280;57934;51.532;7.684;2022-10-30T09:37:59;100516.97;;;25.21;42.96
70468;BME280;57934;51.532;7.684;2022-10-30T09:43:35;100514.97;;;24.68;45.19
70468;BME280;57934;51.532;7.684;2022-10-30T10:00:52;100525.50;;;20.63;55.28
70468;BME280;57934;51.532;7.684;2022-10-30T10:06:42;100518.75;;;20.34;56.77
70468;BME280;57934;51.532;7.684;2022-10-30T10:12:38;100511.94;;;20.48;56.52
70468;BME280;57934;51.532;7.684;2022-10-30T10:15:13;100506.00;;;20.68;56.34
70468;BME280;57934;51.532;7.684;2022-10-30T10:17:43;100511.44;;;20.78;55.68
70468;BME280;57934;51.532;7.684;2022-10-30T10:20:16;100497.47;;;20.76;55.56
70468;BME280;57934;51.532;7.684;2022-10-30T10:22:48;100493.28;;;20.90;55.31
70468;BME280;57934;51.532;7.684;2022-10-30T10:25:18;100491.25;;;21.03;55.25
70468;BME280;57934;51.532;7.684;2022-10-30T10:31:20;100477.00;;;20.97;55.21
70468;BME280;57934;51.532;7.684;2022-10-30T10:33:53;100480.44;;;20.92;55.55
70468;BME280;57934;51.532;7.684;2022-10-30T10:42:33;100476.41;;;21.27;55.31
70468;BME280;57934;51.532;7.684;2022-10-30T10:50:31;100454.25;;;22.35;53.56
70468;BME280;57934;51.532;7.684;2022-10-30T10:53:10;100462.59;;;22.80;52.16
70468;BME280;57934;51.532;7.684;2022-10-30T10:55:47;100464.63;;;23.54;50.13
70468;BME280;57934;51.532;7.684;2022-10-30T10:58:24;100465.28;;;24.35;48.03
70468;BME280;57934;51.532;7.684;2022-10-30T11:00:52;100462.44;;;24.61;47.54
70468;BME280;57934;51.532;7.684;2022-10-30T11:03:27;100464.44;;;24.45;47.94
70468;BME280;57934;51.532;7.684;2022-10-30T11:06:20;100460.94;;;24.79;47.46
70468;BME280;57934;51.532;7.684;2022-10-30T11:08:48;100460.41;;;25.06;45.63
70468;BME280;57934;51.532;7.684;2022-10-30T11:11:21;100454.78;;;25.74;44.94
70468;BME280;57934;51.532;7.684;2022-10-30T11:13:50;100448.19;;;27.35;41.36
70468;BME280;57934;51.532;7.684;2022-10-30T11:16:43;100446.22;;;28.81;39.18
70468;BME280;57934;51.532;7.684;2022-10-30T11:19:19;100450.63;;;30.22;36.81
70468;BME280;57934;51.532;7.684;2022-10-30T11:21:58;100451.91;;;31.45;35.08
70468;BME280;57934;51.532;7.684;2022-10-30T11:24:36;100446.69;;;32.23;33.01
70468;BME280;57934;51.532;7.684;2022-10-30T11:27:25;100445.75;;;32.86;32.00
70468;BME280;57934;51.532;7.684;2022-10-30T11:29:58;100448.47;;;32.73;31.33
70468;BME280;57934;51.532;7.684;2022-10-30T11:32:30;100445.53;;;32.78;31.53
70468;BME280;57934;51.532;7.684;2022-10-30T11:35:02;100438.75;;;32.64;31.82
70468;BME280;57934;51.532;7.684;2022-10-30T11:37:40;100440.81;;;32.67;31.24
70468;BME280;57934;51.532;7.684;2022-10-30T11:45:16;100433.34;;;32.88;31.50
70468;BME280;57934;51.532;7.684;2022-10-30T11:47:44;100423.88;;;32.73;31.98
70468;BME280;57934;51.532;7.684;2022-10-30T11:50:19;100428.69;;;33.13;30.93
70468;BME280;57934;51.532;7.684;2022-10-30T11:52:49;100422.44;;;33.37;31.01
70468;BME280;57934;51.532;7.684;2022-10-30T11:55:33;100420.78;;;32.63;32.76
70468;BME280;57934;51.532;7.684;2022-10-30T11:58:01;100413.75;;;30.59;35.67
70468;BME280;57934;51.532;7.684;2022-10-30T12:00:31;100421.84;;;28.58;38.11
70468;BME280;57934;51.532;7.684;2022-10-30T12:02:58;100425.53;;;26.84;41.05
70468;BME280;57934;51.532;7.684;2022-10-30T12:05:40;100423.19;;;25.51;44.04
70468;BME280;57934;51.532;7.684;2022-10-30T12:10:37;100422.22;;;24.25;47.63
70468;BME280;57934;51.532;7.684;2022-10-30T12:13:12;100423.50;;;23.98;48.46
70468;BME280;57934;51.532;7.684;2022-10-30T12:15:39;100420.97;;;23.73;49.69
70468;BME280;57934;51.532;7.684;2022-10-30T12:18:07;100418.81;;;23.65;49.81
70468;BME280;57934;51.532;7.684;2022-10-30T12:20:44;100415.59;;;23.63;50.86
70468;BME280;57934;51.532;7.684;2022-10-30T12:23:15;100414.50;;;23.64;50.51
70468;BME280;57934;51.532;7.684;2022-10-30T12:25:46;100401.63;;;23.55;50.85
70468;BME280;57934;51.532;7.684;2022-10-30T12:28:22;100395.16;;;23.51;50.61
70468;BME280;57934;51.532;7.684;2022-10-30T12:33:46;100399.00;;;23.40;50.63
70468;BME280;57934;51.532;7.684;2022-10-30T12:36:32;100392.56;;;23.36;52.42
70468;BME280;57934;51.532;7.684;2022-10-30T12:39:17;100390.41;;;23.38;51.62
70468;BME280;57934;51.532;7.684;2022-10-30T12:41:59;100384.75;;;23.34;51.29
70468;BME280;57934;51.532;7.684;2022-10-30T12:44:31;100384.47;;;23.36;51.24
70468;BME280;57934;51.532;7.684;2022-10-30T12:47:15;100387.47;;;23.29;50.79
70468;BME280;57934;51.532;7.684;2022-10-30T12:49:55;100390.94;;;23.35;50.28
70468;BME280;57934;51.532;7.684;2022-10-30T12:55:26;100390.66;;;23.42;49.97
70468;BME280;57934;51.532;7.684;2022-10-30T13:00:34;100389.56;;;23.38;49.72
70468;BME280;57934;51.532;7.684;2022-10-30T13:03:40;100388.00;;;23.26;50.34
70468;BME280;57934;51.532;7.684;2022-10-30T13:06:18;100391.84;;;23.05;50.34
70468;BME280;57934;51.532;7.684;2022-10-30T13:09:20;100386.75;;;22.88;50.37
70468;BME280;57934;51.532;7.684;2022-10-30T13:11:59;100388.41;;;22.79;51.66
70468;BME280;57934;51.532;7.684;2022-10-30T13:14:38;100382.75;;;22.75;50.52
70468;BME280;57934;51.532;7.684;2022-10-30T13:17:13;100394.56;;;22.74;51.14
70468;BME280;57934;51.532;7.684;2022-10-30T13:19:40;100385.69;;;22.74;51.67
70468;BME280;57934;51.532;7.684;2022-10-30T13:22:22;100390.00;;;22.80;52.17
70468;BME280;57934;51.532;7.684;2022-10-30T13:25:09;100389.19;;;22.79;51.05
70468;BME280;57934;51.532;7.684;2022-10-30T13:30:26;100390.53;;;22.77;48.76
70468;BME280;57934;51.532;7.684;2022-10-30T13:35:36;100386.22;;;22.81;48.74
70468;BME280;57934;51.532;7.684;2022-10-30T13:43:52;100386.81;;;22.68;48.10
70468;BME280;57934;51.532;7.684;2022-10-30T13:49:41;100387.59;;;22.53;48.91
70468;BME280;57934;51.532;7.684;2022-10-30T13:52:16;100384.94;;;22.48;49.20
70468;BME280;57934;51.532;7.684;2022-10-30T13:55:01;100384.94;;;22.48;49.54
70468;BME280;57934;51.532;7.684;2022-10-30T14:00:20;100385.47;;;22.34;49.11
70468;BME280;57934;51.532;7.684;2022-10-30T14:10:50;100393.22;;;22.10;48.90
70468;BME280;57934;51.532;7.684;2022-10-30T14:13:51;100378.72;;;22.01;48.93
70468;BME280;57934;51.532;7.684;2022-10-30T14:19:08;100374.94;;;21.87;49.79
70468;BME280;57934;51.532;7.684;2022-10-30T14:21:43;100374.91;;;21.77;49.61
70468;BME280;57934;51.532;7.684;2022-10-30T14:24:22;100378.66;;;21.76;49.68
70468;BME280;57934;51.532;7.684;2022-10-30T14:26:51;100385.09;;;21.70;50.56
70468;BME280;57934;51.532;7.684;2022-10-30T14:29:40;100386.38;;;21.57;50.71
70468;BME280;57934;51.532;7.684;2022-10-30T14:39:54;100395.72;;;21.39;51.70
70468;BME280;57934;51.532;7.684;2022-10-30T14:42:28;100401.00;;;21.29;52.21
70468;BME280;57934;51.532;7.684;2022-10-30T14:45:16;100395.59;;;21.18;52.14
70468;BME280;57934;51.532;7.684;2022-10-30T14:48:06;100403.88;;;21.12;53.18
70468;BME280;57934;51.532;7.684;2022-10-30T14:56:04;100411.47;;;20.83;54.31
70468;BME280;57934;51.532;7.684;2022-10-30T14:58:33;100410.91;;;20.76;54.28
70468;BME280;57934;51.532;7.684;2022-10-30T15:03:49;100412.09;;;20.58;55.11
70468;BME280;57934;51.532;7.684;2022-10-30T15:06:35;100410.91;;;20.48;55.48
70468;BME280;57934;51.532;7.684;2022-10-30T15:14:56;100408.81;;;20.18;57.33
70468;BME280;57934;51.532;7.684;2022-10-30T15:17:38;100411.09;;;20.05;57.52
70468;BME280;57934;51.532;7.684;2022-10-30T15:20:14;100412.59;;;19.95;58.18
70468;BME280;57934;51.532;7.684;2022-10-30T15:22:41;100415.16;;;19.85;58.09
70468;BME280;57934;51.532;7.684;2022-10-30T15:25:23;100412.34;;;19.75;59.04